Time;durP1;ratioP1;P1;durP2;ratioP2;P2;SDS_P1;SDS_P2;PMS_P1;PMS_P2;Temp;Humidity;BMP_temperature;BMP_pressure;BME280_temperature;BME280_humidity;BME280_pressure;Samples;Min_cycle;Max_cycle;Signal;HPM_P1;HPM_P2
2023/01/23 00:02:32;;;;;;;9.60;5.13;;;5.80;47.70;;;;;;6323680;28;20048;-69
2023/01/23 00:05:33;;;;;;;8.93;4.75;;;5.80;47.70;;;;;;6324216;28;20032;-68
2023/01/23 00:08:34;;;;;;;8.77;4.50;;;5.80;47.60;;;;;;6324983;28;20081;-70
2023/01/23 00:11:35;;;;;;;7.90;3.83;;;5.70;47.50;;;;;;6325147;28;20111;-69
2023/01/23 00:14:36;;;;;;;5.47;3.95;;;5.70;47.40;;;;;;6325283;28;20030;-70
2023/01/23 00:17:37;;;;;;;9.63;4.15;;;5.70;47.50;;;;;;6324736;28;20092;-69
2023/01/23 00:20:39;;;;;;;11.60;4.60;;;5.70;47.50;;;;;;6324960;28;20024;-70
2023/01/23 00:23:44;;;;;;;10.63;4.22;;;5.60;47.30;;;;;;6324963;28;20020;-69
2023/01/23 00:26:45;;;;;;;7.07;4.43;;;5.60;47.40;;;;;;6325108;28;20020;-68
2023/01/23 00:29:46;;;;;;;8.77;3.50;;;5.60;47.40;;;;;;6323173;28;20476;-70
2023/01/23 00:32:47;;;;;;;7.97;3.90;;;5.60;47.40;;;;;;6312532;28;20032;-69
2023/01/23 00:35:48;;;;;;;8.70;3.63;;;5.50;47.80;;;;;;6298126;28;20480;-68
2023/01/23 00:38:51;;;;;;;8.32;3.60;;;5.50;47.10;;;;;;6297890;28;20044;-69
2023/01/23 00:41:52;;;;;;;10.75;3.78;;;5.50;47.10;;;;;;6297998;28;20140;-69
2023/01/23 00:44:53;;;;;;;7.72;3.40;;;5.50;47.00;;;;;;6299424;28;20389;-68
2023/01/23 00:47:53;;;;;;;6.10;3.25;;;5.40;46.90;;;;;;6297531;28;20021;-69
2023/01/23 00:50:54;;;;;;;7.05;3.35;;;5.40;46.90;;;;;;6304322;28;20085;-67
2023/01/23 00:53:55;;;;;;;6.70;3.35;;;5.40;46.90;;;;;;6304250;28;20032;-68
2023/01/23 00:56:56;;;;;;;6.95;4.25;;;5.30;46.70;;;;;;6297700;28;20051;-69
2023/01/23 00:59:57;;;;;;;9.13;3.95;;;5.30;46.90;;;;;;6297408;28;20024;-69
2023/01/23 01:02:58;;;;;;;8.40;3.55;;;5.30;47.00;;;;;;6299098;28;20435;-67
2023/01/23 01:06:00;;;;;;;18.88;3.83;;;5.30;47.00;;;;;;6297569;28;20078;-68
2023/01/23 01:09:02;;;;;;;9.25;4.35;;;5.30;47.00;;;;;;6297206;28;20119;-67
2023/01/23 01:12:03;;;;;;;7.05;3.97;;;5.30;47.00;;;;;;6298543;28;20070;-69
2023/01/23 01:15:06;;;;;;;4.63;2.85;;;5.30;47.00;;;;;;6297457;28;20062;-68
2023/01/23 01:18:07;;;;;;;5.15;3.35;;;5.30;46.90;;;;;;6298345;28;20028;-68
2023/01/23 01:21:10;;;;;;;5.57;3.35;;;5.30;46.90;;;;;;6307747;28;20379;-69
2023/01/23 01:24:11;;;;;;;7.00;3.97;;;5.40;47.00;;;;;;6322268;28;20035;-68
2023/01/23 01:27:12;;;;;;;7.00;3.15;;;5.40;46.90;;;;;;6323511;28;20032;-69
2023/01/23 01:30:16;;;;;;;7.25;3.17;;;5.40;46.80;;;;;;6299419;28;20056;-69
2023/01/23 01:33:17;;;;;;;9.10;3.47;;;5.40;46.80;;;;;;6297564;28;20029;-68
2023/01/23 01:36:20;;;;;;;11.10;4.15;;;5.40;46.80;;;;;;6299575;28;20040;-68
2023/01/23 01:39:21;;;;;;;5.25;3.00;;;5.30;46.70;;;;;;6280652;28;20437;-67
2023/01/23 01:42:22;;;;;;;11.25;3.42;;;5.30;46.70;;;;;;6302343;28;20170;-67
2023/01/23 01:46:00;;;;;;;7.05;3.60;;;5.20;46.60;;;;;;6297615;28;20194;-70
2023/01/23 01:49:06;;;;;;;4.78;2.60;;;5.20;46.50;;;;;;6340161;28;20034;-69
2023/01/23 01:52:13;;;;;;;7.50;3.30;;;5.20;46.50;;;;;;6346906;28;20044;-68
2023/01/23 01:55:14;;;;;;;5.43;3.50;;;5.20;46.30;;;;;;6334360;28;20028;-70
2023/01/23 01:58:16;;;;;;;7.38;3.17;;;5.20;46.40;;;;;;6321003;28;20081;-70
2023/01/23 02:01:17;;;;;;;4.03;2.58;;;5.20;46.50;;;;;;6321569;28;20266;-72
2023/01/23 02:04:18;;;;;;;7.68;2.70;;;5.20;46.40;;;;;;6322553;28;20024;-69
2023/01/23 02:07:26;;;;;;;7.55;3.47;;;5.20;46.30;;;;;;6304464;28;20048;-68
2023/01/23 02:10:27;;;;;;;7.53;3.60;;;5.20;46.40;;;;;;6322443;28;20031;-70
2023/01/23 02:13:35;;;;;;;8.23;3.45;;;5.20;46.30;;;;;;6304652;28;20063;-69
2023/01/23 02:16:39;;;;;;;4.38;2.85;;;5.20;46.10;;;;;;6322427;28;20039;-68
2023/01/23 02:20:05;;;;;;;6.13;3.65;;;5.10;46.20;;;;;;6321958;28;20103;-68
2023/01/23 02:23:28;;;;;;;3.42;2.50;;;5.10;46.30;;;;;;6322156;28;20020;-69
2023/01/23 02:26:32;;;;;;;8.07;3.30;;;5.10;46.30;;;;;;6299678;28;20037;-67
2023/01/23 02:29:44;;;;;;;3.97;2.47;;;5.10;46.40;;;;;;6295194;28;20032;-68
2023/01/23 02:32:46;;;;;;;6.40;3.65;;;5.10;46.30;;;;;;6278954;28;20388;-67
2023/01/23 02:35:47;;;;;;;11.48;3.80;;;5.10;46.30;;;;;;6295639;28;20101;-69
2023/01/23 02:38:57;;;;;;;5.18;2.50;;;5.10;46.40;;;;;;6294905;28;20341;-68
2023/01/23 02:42:00;;;;;;;9.38;3.28;;;5.00;46.20;;;;;;6295382;28;20020;-69
2023/01/23 02:45:15;;;;;;;5.10;2.25;;;5.00;46.20;;;;;;6294045;28;20029;-68
2023/01/23 02:48:16;;;;;;;7.15;3.13;;;5.00;46.30;;;;;;6311825;28;20032;-68
2023/01/23 02:51:17;;;;;;;6.15;2.63;;;5.00;46.20;;;;;;6296555;28;20051;-69
2023/01/23 02:54:21;;;;;;;16.33;2.92;;;4.90;46.20;;;;;;6299573;28;20119;-69
2023/01/23 02:57:22;;;;;;;6.68;3.38;;;4.80;46.20;;;;;;6319987;28;20381;-68
2023/01/23 03:00:23;;;;;;;6.57;2.55;;;4.80;46.20;;;;;;6319847;28;20059;-71
2023/01/23 03:03:24;;;;;;;9.88;2.25;;;4.80;46.20;;;;;;6320046;28;20055;-70
2023/01/23 03:06:25;;;;;;;9.40;3.53;;;4.80;46.10;;;;;;6321387;28;20085;-70
2023/01/23 03:09:26;;;;;;;6.88;2.97;;;4.80;46.10;;;;;;6319856;28;20028;-68
2023/01/23 03:12:27;;;;;;;5.47;3.55;;;4.80;46.20;;;;;;6321456;28;20035;-69
2023/01/23 03:15:29;;;;;;;7.25;2.53;;;4.80;46.20;;;;;;6321594;28;20024;-67
2023/01/23 03:18:32;;;;;;;9.18;4.63;;;4.80;46.20;;;;;;6302758;28;20059;-69
2023/01/23 03:21:35;;;;;;;15.45;3.17;;;4.90;46.30;;;;;;6307451;28;20094;-69
2023/01/23 03:24:35;;;;;;;6.32;3.20;;;4.90;46.20;;;;;;6296257;28;20056;-69
2023/01/23 03:27:36;;;;;;;4.00;2.78;;;4.90;46.00;;;;;;6294728;28;20419;-69
2023/01/23 03:30:37;;;;;;;4.30;2.13;;;4.90;45.80;;;;;;6294764;28;20416;-69
2023/01/23 03:33:42;;;;;;;5.05;2.50;;;4.90;45.80;;;;;;6278037;28;20036;-68
2023/01/23 03:36:43;;;;;;;4.72;1.95;;;4.90;45.80;;;;;;6297897;28;20032;-70
2023/01/23 03:43:05;;;;;;;13.93;2.92;;;4.80;45.60;;;;;;6350396;28;20108;-67
2023/01/23 03:46:09;;;;;;;8.40;2.42;;;4.80;45.60;;;;;;6350176;28;20031;-68
2023/01/23 03:49:12;;;;;;;5.68;2.53;;;4.80;45.60;;;;;;6349743;28;20077;-67
2023/01/23 03:52:13;;;;;;;3.65;2.47;;;4.80;45.70;;;;;;6350360;28;20062;-68
2023/01/23 03:55:14;;;;;;;3.55;1.67;;;4.80;45.70;;;;;;6323442;28;20032;-67
2023/01/23 03:58:16;;;;;;;5.75;2.85;;;4.80;45.70;;;;;;6324299;28;20105;-68
2023/01/23 04:01:19;;;;;;;8.77;2.67;;;4.80;45.60;;;;;;6324286;28;20024;-68
2023/01/23 04:04:20;;;;;;;7.00;3.30;;;4.80;45.60;;;;;;6324160;28;20031;-68
2023/01/23 04:07:21;;;;;;;6.57;2.42;;;4.80;45.70;;;;;;6323977;28;20042;-68
2023/01/23 04:10:23;;;;;;;5.75;2.85;;;4.80;45.70;;;;;;6323725;28;20121;-68
2023/01/23 04:13:29;;;;;;;4.03;2.42;;;4.80;45.70;;;;;;6323974;28;20395;-69
2023/01/23 04:16:30;;;;;;;10.35;3.90;;;4.80;45.80;;;;;;6322426;28;20035;-67
2023/01/23 04:19:33;;;;;;;7.32;2.70;;;4.90;45.70;;;;;;6298206;28;20388;-67
2023/01/23 04:22:34;;;;;;;4.53;3.03;;;4.90;45.80;;;;;;6299936;28;20028;-68
2023/01/23 04:25:35;;;;;;;7.88;3.65;;;4.90;45.70;;;;;;6298268;28;20259;-67
2023/01/23 04:28:37;;;;;;;3.95;2.47;;;4.90;45.70;;;;;;6298115;28;20029;-69
2023/01/23 04:31:39;;;;;;;3.15;1.98;;;4.90;45.60;;;;;;6298065;28;20124;-69
2023/01/23 04:34:39;;;;;;;7.32;2.42;;;4.90;45.40;;;;;;6298254;28;20039;-68
2023/01/23 04:37:40;;;;;;;6.30;2.83;;;4.90;45.40;;;;;;6318619;28;20310;-68
2023/01/23 04:40:42;;;;;;;2.85;1.63;;;4.90;45.30;;;;;;6323028;28;20028;-66
2023/01/23 04:43:43;;;;;;;6.13;2.13;;;4.80;45.20;;;;;;6324357;28;20056;-67
2023/01/23 04:46:49;;;;;;;5.25;2.40;;;4.80;45.20;;;;;;6322536;28;20031;-67
2023/01/23 04:49:53;;;;;;;3.13;1.83;;;4.80;45.30;;;;;;6322646;28;20024;-67
2023/01/23 04:52:54;;;;;;;3.97;3.03;;;4.70;45.30;;;;;;6322953;28;20071;-69
2023/01/23 04:55:55;;;;;;;7.85;3.75;;;4.70;45.40;;;;;;6322732;28;20032;-69
2023/01/23 04:58:56;;;;;;;4.25;2.10;;;4.70;45.50;;;;;;6322446;28;20032;-69
2023/01/23 05:01:57;;;;;;;7.13;2.95;;;4.70;45.50;;;;;;6322599;28;20024;-69
2023/01/23 05:04:59;;;;;;;3.22;1.98;;;4.70;45.60;;;;;;6322744;28;20028;-69
2023/01/23 05:08:00;;;;;;;3.92;2.00;;;4.70;45.60;;;;;;6322186;28;20111;-69
2023/01/23 05:11:02;;;;;;;4.88;2.47;;;4.70;45.50;;;;;;6322555;28;20028;-68
2023/01/23 05:14:03;;;;;;;3.72;2.10;;;4.70;45.50;;;;;;6310195;28;20047;-69
2023/01/23 05:17:05;;;;;;;5.40;2.65;;;4.70;45.60;;;;;;6297489;28;20040;-70
2023/01/23 05:20:10;;;;;;;5.68;2.80;;;4.70;45.80;;;;;;6297054;28;20029;-67
2023/01/23 05:23:12;;;;;;;6.75;3.00;;;4.70;45.50;;;;;;6297575;28;20070;-68
2023/01/23 05:26:20;;;;;;;4.43;2.35;;;4.70;45.40;;;;;;6297078;28;20378;-71
2023/01/23 05:29:21;;;;;;;3.65;2.22;;;4.70;45.30;;;;;;6296783;28;20106;-69
2023/01/23 05:32:44;;;;;;;5.47;2.63;;;4.70;45.30;;;;;;6308206;28;20024;-69
2023/01/23 05:35:51;;;;;;;9.00;3.47;;;4.60;45.10;;;;;;6322123;28;20038;-66
2023/01/23 05:38:54;;;;;;;4.15;2.45;;;4.60;45.10;;;;;;6321775;28;20036;-68
2023/01/23 05:41:58;;;;;;;3.95;1.83;;;4.60;45.10;;;;;;6322881;28;20534;-68
2023/01/23 05:45:23;;;;;;;4.13;1.95;;;4.60;45.00;;;;;;6309269;28;20082;-66
2023/01/23 05:48:24;;;;;;;6.45;2.30;;;4.60;45.10;;;;;;6321348;28;20032;-67
2023/01/23 05:51:30;;;;;;;5.03;2.45;;;4.60;45.10;;;;;;6321808;28;20158;-67
2023/01/23 05:54:32;;;;;;;4.10;1.70;;;4.50;45.10;;;;;;6314912;28;20024;-67
2023/01/23 05:57:34;;;;;;;5.50;2.45;;;4.50;45.70;;;;;;6279776;28;20102;-68
2023/01/23 06:01:13;;;;;;;4.90;2.72;;;4.50;45.20;;;;;;6269644;28;20120;-67
2023/01/23 06:04:33;;;;;;;4.30;2.20;;;4.40;45.30;;;;;;6270556;28;20037;-69
2023/01/23 06:07:51;;;;;;;5.97;2.40;;;4.40;45.30;;;;;;6270941;28;20033;-69
2023/01/23 06:10:52;;;;;;;4.47;2.78;;;4.40;45.50;;;;;;6286846;28;20370;-68
2023/01/23 06:13:54;;;;;;;1.38;1.15;;;4.40;45.50;;;;;;6277511;28;20029;-69
2023/01/23 06:16:54;;;;;;;8.35;3.00;;;4.40;45.50;;;;;;6294365;28;20032;-69
2023/01/23 06:19:57;;;;;;;3.72;1.95;;;4.40;45.50;;;;;;6293702;28;20130;-69
2023/01/23 06:22:58;;;;;;;5.28;2.42;;;4.40;45.50;;;;;;6294196;28;20037;-68
2023/01/23 06:26:02;;;;;;;9.70;2.25;;;4.40;45.50;;;;;;6276947;28;20857;-69
2023/01/23 06:29:04;;;;;;;3.03;1.70;;;4.40;45.60;;;;;;6276629;28;20029;-69
2023/01/23 06:32:05;;;;;;;4.65;2.70;;;4.40;45.60;;;;;;6285766;28;20063;-71
2023/01/23 06:35:06;;;;;;;3.30;2.67;;;4.30;45.60;;;;;;6295305;28;20024;-70
2023/01/23 06:38:11;;;;;;;8.18;2.95;;;4.30;45.50;;;;;;6294781;28;20032;-69
2023/01/23 06:41:12;;;;;;;4.75;2.83;;;4.30;45.60;;;;;;6295298;28;20032;-68
2023/01/23 06:44:19;;;;;;;4.57;2.08;;;4.30;45.70;;;;;;6279090;28;20813;-69
2023/01/23 06:47:22;;;;;;;3.50;1.70;;;4.30;45.70;;;;;;6295324;28;20029;-69
2023/01/23 06:50:29;;;;;;;3.67;2.08;;;4.30;45.60;;;;;;6294960;28;20032;-67
2023/01/23 06:53:30;;;;;;;6.13;2.53;;;4.20;45.60;;;;;;6294945;28;20395;-69
2023/01/23 06:56:31;;;;;;;4.50;2.55;;;4.40;45.70;;;;;;6318258;28;20047;-69
2023/01/23 06:59:36;;;;;;;7.45;2.97;;;4.30;45.70;;;;;;6319698;28;20032;-68
2023/01/23 07:02:39;;;;;;;3.10;1.70;;;4.30;45.70;;;;;;6319904;28;20028;-68
2023/01/23 07:05:42;;;;;;;21.70;3.60;;;4.30;45.70;;;;;;6314778;28;20422;-69
2023/01/23 07:08:43;;;;;;;3.17;1.60;;;4.40;45.50;;;;;;6277506;28;20660;-68
2023/01/23 07:11:44;;;;;;;7.25;2.40;;;4.40;45.30;;;;;;6295782;28;20035;-70
2023/01/23 07:14:45;;;;;;;3.03;1.98;;;4.50;45.20;;;;;;6278116;28;20056;-69
2023/01/23 07:17:50;;;;;;;5.82;2.15;;;4.40;45.00;;;;;;6294295;28;20048;-69
2023/01/23 07:20:51;;;;;;;5.57;2.88;;;4.40;45.00;;;;;;6295758;28;20034;-70
2023/01/23 07:23:52;;;;;;;8.98;2.97;;;4.30;45.00;;;;;;6295821;28;20024;-68
2023/01/23 07:26:53;;;;;;;4.10;2.63;;;4.30;45.10;;;;;;6320556;28;20440;-69
2023/01/23 07:29:53;;;;;;;3.85;2.08;;;4.30;45.30;;;;;;6320589;28;20435;-67
2023/01/23 07:32:54;;;;;;;3.90;1.65;;;4.40;45.30;;;;;;6320646;28;20032;-71
2023/01/23 07:35:55;;;;;;;2.13;1.45;;;4.30;45.20;;;;;;6320896;28;20036;-70
2023/01/23 07:38:57;;;;;;;3.13;1.60;;;4.30;45.20;;;;;;6319090;28;20434;-70
2023/01/23 07:41:58;;;;;;;6.07;2.40;;;4.30;45.20;;;;;;6320578;28;20455;-68
2023/01/23 07:45:02;;;;;;;3.22;1.55;;;4.30;45.10;;;;;;6320556;28;20028;-67
2023/01/23 07:48:03;;;;;;;4.25;2.45;;;4.30;45.20;;;;;;6320363;28;20046;-67
2023/01/23 07:51:05;;;;;;;7.40;2.85;;;4.30;45.80;;;;;;6320627;28;20043;-69
2023/01/23 07:54:06;;;;;;;2.72;1.65;;;4.30;45.10;;;;;;6315905;28;20048;-69
2023/01/23 07:57:07;;;;;;;4.65;2.40;;;4.30;45.10;;;;;;6295589;28;20033;-69
2023/01/23 08:00:09;;;;;;;5.63;2.05;;;4.30;45.20;;;;;;6293758;28;20036;-67
2023/01/23 08:03:13;;;;;;;4.05;2.15;;;4.40;45.30;;;;;;6311078;28;20038;-69
2023/01/23 08:06:14;;;;;;;4.40;1.75;;;4.20;45.30;;;;;;6319315;28;20169;-69
2023/01/23 08:09:15;;;;;;;8.43;2.85;;;4.20;45.40;;;;;;6320385;28;20059;-69
2023/01/23 08:12:15;;;;;;;6.85;2.95;;;4.20;45.50;;;;;;6320684;28;20035;-70
2023/01/23 08:15:16;;;;;;;3.40;2.45;;;4.20;45.50;;;;;;6320978;28;20082;-69
2023/01/23 08:18:17;;;;;;;8.50;2.08;;;4.30;45.50;;;;;;6335404;28;20372;-68
2023/01/23 08:21:18;;;;;;;4.60;2.70;;;4.30;45.10;;;;;;6322717;28;20052;-68
2023/01/23 08:24:20;;;;;;;3.00;1.65;;;4.30;44.70;;;;;;6325194;28;20032;-68
2023/01/23 08:27:21;;;;;;;4.78;1.85;;;4.30;44.40;;;;;;6324749;28;20024;-67
2023/01/23 08:30:21;;;;;;;2.58;2.05;;;4.30;44.40;;;;;;6324573;28;20028;-69
2023/01/23 08:33:22;;;;;;;2.83;1.63;;;4.30;44.40;;;;;;6324619;28;20545;-69
2023/01/23 08:36:23;;;;;;;3.78;2.47;;;4.30;44.10;;;;;;6324608;28;20028;-68
2023/01/23 08:39:24;;;;;;;5.65;2.85;;;4.30;44.10;;;;;;6324329;28;20031;-69
2023/01/23 08:42:25;;;;;;;4.53;2.25;;;4.40;44.00;;;;;;6323173;28;20107;-70
2023/01/23 08:45:26;;;;;;;3.88;2.47;;;4.40;44.00;;;;;;6323127;28;20464;-67
2023/01/23 08:48:27;;;;;;;5.07;2.50;;;4.50;44.00;;;;;;6324012;28;20031;-69
2023/01/23 08:51:28;;;;;;;4.60;2.15;;;4.50;43.90;;;;;;6323177;28;20036;-69
2023/01/23 08:54:29;;;;;;;5.45;2.25;;;4.50;43.80;;;;;;6317602;28;20039;-70
2023/01/23 08:57:30;;;;;;;14.18;3.03;;;4.50;44.00;;;;;;6297340;28;20523;-69
2023/01/23 09:00:31;;;;;;;4.32;2.65;;;4.60;44.00;;;;;;6321861;28;20464;-72
2023/01/23 09:03:32;;;;;;;15.23;3.05;;;4.60;43.80;;;;;;6322620;28;20028;-68
2023/01/23 09:06:33;;;;;;;8.82;2.63;;;4.50;43.80;;;;;;6323836;28;20384;-68
2023/01/23 09:09:34;;;;;;;3.42;2.22;;;4.60;43.80;;;;;;6322103;28;20043;-71
2023/01/23 09:12:35;;;;;;;5.43;2.30;;;4.60;43.70;;;;;;6323972;28;20028;-68
2023/01/23 09:15:39;;;;;;;7.72;2.35;;;4.60;43.80;;;;;;6323809;28;20028;-70
2023/01/23 09:18:40;;;;;;;4.68;2.55;;;4.60;43.70;;;;;;6323199;28;20024;-71
2023/01/23 09:21:41;;;;;;;4.18;2.67;;;4.50;43.70;;;;;;6323382;28;20153;-67
2023/01/23 09:24:42;;;;;;;3.28;2.38;;;4.60;43.70;;;;;;6323531;28;20046;-67
2023/01/23 09:27:42;;;;;;;5.30;1.90;;;4.60;43.50;;;;;;6321904;28;20028;-68
2023/01/23 09:30:43;;;;;;;4.72;3.00;;;4.60;43.50;;;;;;6323429;28;20353;-68
2023/01/23 09:33:46;;;;;;;6.22;2.50;;;4.70;43.60;;;;;;6323160;28;20081;-68
2023/01/23 09:36:47;;;;;;;4.93;2.45;;;4.70;43.30;;;;;;6323087;28;20039;-69
2023/01/23 09:39:48;;;;;;;8.52;2.88;;;4.80;43.30;;;;;;6321165;28;20344;-69
2023/01/23 09:42:53;;;;;;;6.35;3.00;;;4.90;43.20;;;;;;6322852;28;20059;-69
2023/01/23 09:46:13;;;;;;;6.82;3.33;;;4.90;43.20;;;;;;6322881;28;20024;-71
2023/01/23 09:49:26;;;;;;;9.80;3.65;;;4.90;43.20;;;;;;6321275;28;20342;-69
2023/01/23 09:52:38;;;;;;;5.18;2.83;;;4.90;43.30;;;;;;6321788;28;20028;-69
2023/01/23 09:55:41;;;;;;;5.85;3.28;;;4.90;43.00;;;;;;6304691;28;20131;-69
2023/01/23 09:59:24;;;;;;;4.72;2.60;;;5.00;42.90;;;;;;6296610;28;20499;-67
2023/01/23 10:02:25;;;;;;;3.75;2.33;;;5.10;42.80;;;;;;6298166;28;20019;-69
2023/01/23 10:05:55;;;;;;;5.97;2.35;;;5.10;42.70;;;;;;6299245;28;20050;-68
2023/01/23 10:09:08;;;;;;;6.75;2.30;;;5.20;42.70;;;;;;6297960;28;20059;-68
2023/01/23 10:12:34;;;;;;;29.30;3.67;;;5.20;42.30;;;;;;6297694;28;20041;-69
2023/01/23 10:15:47;;;;;;;13.75;3.13;;;5.20;42.20;;;;;;6297306;28;20032;-71
2023/01/23 10:19:20;;;;;;;6.75;4.00;;;5.30;42.20;;;;;;6295707;28;20417;-69
2023/01/23 10:22:59;;;;;;;5.28;3.47;;;5.30;42.10;;;;;;6297663;28;20488;-68
2023/01/23 10:26:02;;;;;;;9.57;3.42;;;5.30;42.00;;;;;;6305692;28;20042;-69
2023/01/23 10:29:32;;;;;;;7.18;3.42;;;5.30;41.90;;;;;;6308950;28;20029;-68
2023/01/23 10:32:48;;;;;;;6.65;3.67;;;5.30;42.00;;;;;;6278837;28;20052;-68
2023/01/23 10:36:05;;;;;;;6.40;2.95;;;5.30;42.00;;;;;;6297290;28;20117;-68
2023/01/23 10:39:40;;;;;;;8.40;4.37;;;5.30;42.00;;;;;;6295169;28;20029;-69
2023/01/23 10:42:41;;;;;;;4.97;2.28;;;5.30;41.90;;;;;;6296626;28;20068;-69
2023/01/23 10:45:43;;;;;;;5.90;2.63;;;5.30;42.00;;;;;;6295928;28;20028;-67
2023/01/23 10:48:49;;;;;;;8.93;2.80;;;5.40;42.20;;;;;;6296201;28;20111;-68
2023/01/23 10:51:50;;;;;;;5.00;2.45;;;5.40;42.20;;;;;;6296194;28;20039;-69
2023/01/23 10:54:51;;;;;;;11.93;4.57;;;5.50;42.10;;;;;;6295123;28;20029;-70
2023/01/23 10:57:55;;;;;;;5.57;3.08;;;5.60;42.00;;;;;;6295482;28;20395;-70
2023/01/23 11:00:56;;;;;;;8.85;4.07;;;5.70;41.90;;;;;;6296264;28;20079;-70
2023/01/23 11:04:07;;;;;;;21.15;5.40;;;5.80;41.90;;;;;;6295308;28;20032;-69
2023/01/23 11:07:29;;;;;;;14.88;5.00;;;5.80;41.90;;;;;;6296943;28;20029;-70
2023/01/23 11:10:30;;;;;;;8.80;3.58;;;6.00;42.00;;;;;;6309914;28;20059;-67
2023/01/23 11:13:31;;;;;;;5.53;2.75;;;6.10;42.00;;;;;;6320807;28;20034;-70
2023/01/23 11:16:32;;;;;;;9.00;4.78;;;6.30;41.90;;;;;;6321566;28;20054;-68
2023/01/23 11:19:36;;;;;;;9.18;3.47;;;6.40;41.80;;;;;;6303698;28;20055;-69
2023/01/23 11:22:40;;;;;;;8.55;4.20;;;6.50;41.80;;;;;;6320775;28;20462;-67
2023/01/23 11:25:46;;;;;;;11.75;3.83;;;6.50;41.70;;;;;;6321251;28;20057;-72
2023/01/23 11:28:48;;;;;;;6.10;3.15;;;6.50;41.80;;;;;;6321194;28;20035;-71
2023/01/23 11:31:56;;;;;;;5.53;3.25;;;6.60;41.80;;;;;;6319511;28;20037;-70
2023/01/23 11:35:14;;;;;;;6.80;3.38;;;6.60;41.80;;;;;;6320936;28;20020;-69
2023/01/23 11:38:18;;;;;;;9.27;3.90;;;6.60;41.50;;;;;;6320182;28;20028;-70
2023/01/23 11:41:23;;;;;;;9.88;3.88;;;6.70;41.40;;;;;;6320890;28;20024;-69
2023/01/23 11:44:25;;;;;;;19.73;4.57;;;6.70;41.30;;;;;;6319425;28;20024;-68
2023/01/23 11:47:43;;;;;;;18.98;5.32;;;6.70;41.30;;;;;;6311219;28;20388;-71
2023/01/23 11:51:21;;;;;;;14.48;3.80;;;6.80;41.20;;;;;;6295190;28;20536;-69
2023/01/23 11:54:42;;;;;;;8.23;3.60;;;6.80;40.90;;;;;;6294743;28;20036;-69
2023/01/23 11:57:52;;;;;;;11.73;4.40;;;6.70;40.60;;;;;;6297649;28;20047;-72
2023/01/23 12:01:15;;;;;;;11.32;4.05;;;6.60;40.80;;;;;;6299342;28;20078;-70
2023/01/23 12:04:31;;;;;;;5.75;3.35;;;6.60;40.80;;;;;;6299055;28;20025;-69
2023/01/23 12:08:11;;;;;;;12.18;4.95;;;6.60;40.80;;;;;;6319786;28;20386;-70
2023/01/23 12:11:19;;;;;;;13.45;3.60;;;6.60;40.90;;;;;;6297746;28;20044;-68
2023/01/23 12:14:49;;;;;;;6.70;3.88;;;6.70;41.00;;;;;;6280649;28;20032;-69
2023/01/23 12:17:56;;;;;;;13.15;3.63;;;6.80;40.80;;;;;;6297386;28;20059;-69
2023/01/23 12:21:24;;;;;;;4.90;2.88;;;6.70;40.70;;;;;;6299517;28;20028;-68
2023/01/23 12:24:49;;;;;;;13.13;6.13;;;6.60;40.70;;;;;;6309240;28;20036;-69
2023/01/23 12:28:13;;;;;;;9.13;3.65;;;6.70;40.80;;;;;;6297988;28;20037;-67
2023/01/23 12:31:36;;;;;;;12.40;4.15;;;6.70;40.80;;;;;;6297525;28;20044;-69
2023/01/23 12:35:01;;;;;;;11.63;3.88;;;6.80;40.80;;;;;;6296919;28;20033;-70
2023/01/23 12:38:16;;;;;;;7.97;3.33;;;6.90;40.80;;;;;;6296373;28;20043;-68
2023/01/23 12:41:35;;;;;;;12.38;4.70;;;7.00;40.60;;;;;;6296635;28;20127;-70
2023/01/23 12:44:45;;;;;;;9.48;3.90;;;7.00;40.50;;;;;;6290851;28;20037;-69
2023/01/23 12:48:27;;;;;;;5.90;3.50;;;6.90;40.40;;;;;;6299033;28;20108;-68
2023/01/23 12:51:37;;;;;;;9.05;3.83;;;6.90;40.60;;;;;;6297641;28;20036;-69
2023/01/23 12:54:42;;;;;;;8.63;4.32;;;6.90;40.70;;;;;;6306001;28;20035;-71
2023/01/23 12:57:50;;;;;;;10.23;3.53;;;6.90;40.90;;;;;;6322600;28;20430;-69
2023/01/23 13:01:09;;;;;;;6.63;3.05;;;6.90;41.00;;;;;;6324087;28;20115;-68
2023/01/23 13:04:10;;;;;;;11.32;4.78;;;7.10;41.00;;;;;;6322621;28;20028;-69
2023/01/23 13:07:23;;;;;;;10.10;4.53;;;7.10;40.90;;;;;;6322829;28;20089;-67
2023/01/23 13:13:53;;;;;;;7.18;3.90;;;7.30;41.10;;;;;;6324071;28;20039;-68
2023/01/23 13:16:56;;;;;;;26.73;6.18;;;7.40;41.10;;;;;;6323014;28;20035;-69
2023/01/23 13:23:40;;;;;;;11.82;4.05;;;7.40;41.30;;;;;;6323502;28;20028;-69
2023/01/23 13:26:41;;;;;;;11.80;4.93;;;7.40;41.80;;;;;;6321929;28;20032;-68
2023/01/23 13:29:48;;;;;;;18.83;6.03;;;7.30;41.90;;;;;;6322781;28;20107;-70
2023/01/23 13:32:50;;;;;;;10.93;4.67;;;7.40;41.80;;;;;;6324145;28;20066;-68
2023/01/23 13:35:54;;;;;;;9.93;4.53;;;7.40;41.90;;;;;;6323971;28;20055;-68
2023/01/23 13:39:15;;;;;;;9.88;4.38;;;7.50;42.00;;;;;;6322592;28;20135;-70
2023/01/23 13:42:22;;;;;;;10.10;4.55;;;7.50;42.10;;;;;;6298094;28;20361;-69
2023/01/23 13:45:26;;;;;;;7.25;4.22;;;7.50;42.30;;;;;;6297846;28;20031;-69
2023/01/23 13:56:37;;;;;;;8.52;4.78;;;7.50;42.50;;;;;;6314789;28;20028;-69
2023/01/23 13:58:59;;;;;;;15.90;6.18;;;7.50;42.50;;;;;;6306727;28;20063;-69
2023/01/23 14:05:46;;;;;;;14.25;5.00;;;7.60;42.30;;;;;;6322126;28;20035;-68
2023/01/23 14:08:50;;;;;;;8.05;4.63;;;7.60;42.40;;;;;;6321041;28;20113;-69
2023/01/23 14:11:58;;;;;;;11.20;5.80;;;7.50;42.40;;;;;;6322451;28;20047;-69
2023/01/23 14:18:28;;;;;;;9.55;4.97;;;7.40;42.80;;;;;;6321892;28;20040;-71
2023/01/23 14:21:33;;;;;;;11.07;4.32;;;7.30;43.10;;;;;;6319999;28;20054;-70
2023/01/23 14:24:46;;;;;;;15.15;3.63;;;7.30;43.20;;;;;;6322288;28;20032;-69
2023/01/23 14:27:47;;;;;;;19.55;5.32;;;7.20;43.30;;;;;;6320511;28;20024;-70
2023/01/23 14:31:21;;;;;;;17.63;6.00;;;7.20;43.50;;;;;;6321602;28;20510;-68
2023/01/23 14:34:24;;;;;;;10.02;4.75;;;7.20;43.50;;;;;;6320207;28;20081;-67
2023/01/23 14:37:26;;;;;;;14.15;4.55;;;7.30;43.60;;;;;;6319861;28;20391;-71
2023/01/23 14:40:27;;;;;;;10.13;5.15;;;7.30;43.50;;;;;;6321672;28;20027;-69
2023/01/23 14:43:29;;;;;;;10.93;5.03;;;7.30;43.50;;;;;;6321294;28;20024;-68
2023/01/23 14:46:40;;;;;;;10.75;5.05;;;7.40;43.60;;;;;;6303815;28;20082;-68
2023/01/23 14:49:42;;;;;;;16.10;5.32;;;7.40;43.60;;;;;;6320040;28;20039;-70
2023/01/23 14:52:43;;;;;;;10.27;4.97;;;7.40;43.70;;;;;;6321469;28;20103;-69
2023/01/23 14:55:48;;;;;;;13.50;5.18;;;7.40;43.70;;;;;;6318191;28;20466;-70
2023/01/23 14:58:49;;;;;;;13.40;5.25;;;7.50;43.70;;;;;;6320616;28;20391;-68
2023/01/23 15:01:58;;;;;;;9.32;4.82;;;7.50;43.80;;;;;;6321012;28;20034;-70
2023/01/23 15:05:17;;;;;;;10.23;4.95;;;7.60;43.70;;;;;;6321583;28;20211;-71
2023/01/23 15:08:25;;;;;;;18.23;5.80;;;7.60;43.70;;;;;;6321119;28;20158;-70
2023/01/23 15:11:27;;;;;;;23.55;5.68;;;7.60;43.70;;;;;;6319923;28;20082;-70
2023/01/23 15:14:35;;;;;;;11.07;5.03;;;7.60;43.70;;;;;;6321425;28;20024;-70
2023/01/23 15:17:36;;;;;;;11.75;5.20;;;7.60;43.70;;;;;;6319664;28;20394;-69
2023/01/23 15:20:41;;;;;;;12.93;5.70;;;7.60;43.70;;;;;;6321019;28;20059;-70
2023/01/23 15:23:59;;;;;;;13.15;5.63;;;7.50;43.80;;;;;;6321151;28;20055;-70
2023/01/23 15:27:03;;;;;;;12.23;4.90;;;7.50;44.00;;;;;;6319813;28;20017;-69
2023/01/23 15:30:29;;;;;;;12.52;5.35;;;7.50;44.10;;;;;;6319687;28;20058;-71
2023/01/23 15:33:36;;;;;;;12.65;5.28;;;7.50;44.10;;;;;;6334516;28;20028;-69
2023/01/23 15:36:37;;;;;;;9.95;5.10;;;7.50;44.20;;;;;;6337281;28;20036;-68
2023/01/23 15:39:55;;;;;;;13.32;5.28;;;7.50;44.20;;;;;;6326638;28;20039;-69
2023/01/23 15:43:16;;;;;;;7.57;4.03;;;7.50;44.30;;;;;;6326097;28;20048;-71
2023/01/23 15:46:17;;;;;;;12.55;6.43;;;7.50;44.30;;;;;;6324449;28;20085;-69
2023/01/23 15:49:18;;;;;;;15.23;6.00;;;7.50;44.30;;;;;;6325365;28;20028;-69
2023/01/23 15:52:21;;;;;;;13.70;5.53;;;7.50;44.40;;;;;;6289566;28;20093;-68
2023/01/23 15:55:25;;;;;;;9.48;5.10;;;7.40;44.50;;;;;;6299889;28;20056;-68
2023/01/23 15:58:26;;;;;;;13.35;5.30;;;7.40;44.50;;;;;;6289353;28;20089;-70
2023/01/23 16:01:27;;;;;;;10.18;4.55;;;7.40;44.70;;;;;;6325336;28;20127;-69
2023/01/23 16:04:28;;;;;;;9.63;5.03;;;7.40;44.80;;;;;;6325581;28;20037;-67
2023/01/23 16:07:33;;;;;;;10.45;5.50;;;7.30;44.80;;;;;;6323832;28;20032;-69
2023/01/23 16:10:38;;;;;;;11.65;4.95;;;7.30;44.90;;;;;;6325293;28;20135;-68
2023/01/23 16:13:39;;;;;;;9.73;4.57;;;7.30;45.10;;;;;;6325249;28;20052;-69
2023/01/23 16:16:40;;;;;;;12.52;6.10;;;7.20;45.10;;;;;;6324104;28;20028;-68
2023/01/23 16:19:41;;;;;;;8.32;4.97;;;7.20;45.10;;;;;;6323506;28;20593;-67
2023/01/23 16:22:43;;;;;;;9.70;5.00;;;7.10;45.20;;;;;;6324924;28;20107;-69
2023/01/23 16:25:45;;;;;;;11.77;5.50;;;7.10;45.30;;;;;;6324658;28;20034;-70
2023/01/23 16:28:47;;;;;;;11.75;5.75;;;7.10;45.40;;;;;;6313003;28;20477;-69
2023/01/23 16:31:47;;;;;;;18.83;5.53;;;7.10;45.40;;;;;;6297958;28;20044;-68
2023/01/23 16:34:48;;;;;;;11.48;5.72;;;7.10;45.50;;;;;;6299711;28;20029;-70
2023/01/23 16:37:54;;;;;;;11.57;5.20;;;7.00;45.50;;;;;;6299824;28;20441;-69
2023/01/23 16:40:58;;;;;;;10.20;4.50;;;7.00;45.60;;;;;;6300363;28;20025;-69
2023/01/23 16:43:59;;;;;;;11.63;5.75;;;7.00;45.50;;;;;;6297923;28;20036;-69